sensor_id;sensor_type;location;lat;lon;timestamp;P1;durP1;ratioP1;P2;durP2;ratioP2
55065;SDS011;40964;42.114;24.220;2023-05-07T00:02:21;7.13;;;5.10;;
55065;SDS011;40964;42.114;24.220;2023-05-07T00:04:47;5.95;;;4.80;;
55065;SDS011;40964;42.114;24.220;2023-05-07T00:07:13;8.43;;;5.55;;
55065;SDS011;40964;42.114;24.220;2023-05-07T00:09:40;6.85;;;4.82;;
55065;SDS011;40964;42.114;24.220;2023-05-07T00:12:05;7.65;;;5.05;;
55065;SDS011;40964;42.114;24.220;2023-05-07T00:14:31;7.70;;;4.80;;
55065;SDS011;40964;42.114;24.220;2023-05-07T00:16:57;8.60;;;5.07;;
55065;SDS011;40964;42.114;24.220;2023-05-07T00:19:22;8.05;;;5.35;;
55065;SDS011;40964;42.114;24.220;2023-05-07T00:21:48;7.22;;;5.30;;
55065;SDS011;40964;42.114;24.220;2023-05-07T00:24:13;6.43;;;5.13;;
55065;SDS011;40964;42.114;24.220;2023-05-07T00:26:39;10.60;;;5.00;;
55065;SDS011;40964;42.114;24.220;2023-05-07T00:29:04;8.43;;;5.65;;
55065;SDS011;40964;42.114;24.220;2023-05-07T00:31:29;8.35;;;5.47;;
55065;SDS011;40964;42.114;24.220;2023-05-07T00:33:55;7.97;;;5.15;;
55065;SDS011;40964;42.114;24.220;2023-05-07T00:36:20;8.90;;;5.47;;
55065;SDS011;40964;42.114;24.220;2023-05-07T00:38:46;7.38;;;4.88;;
55065;SDS011;40964;42.114;24.220;2023-05-07T00:41:11;9.65;;;5.50;;
55065;SDS011;40964;42.114;24.220;2023-05-07T00:43:36;8.20;;;5.40;;
55065;SDS011;40964;42.114;24.220;2023-05-07T00:46:02;9.65;;;5.80;;
55065;SDS011;40964;42.114;24.220;2023-05-07T00:48:28;8.75;;;5.85;;
55065;SDS011;40964;42.114;24.220;2023-05-07T00:50:53;10.88;;;6.82;;
55065;SDS011;40964;42.114;24.220;2023-05-07T00:53:19;10.48;;;6.00;;
55065;SDS011;40964;42.114;24.220;2023-05-07T00:55:45;10.70;;;6.68;;
55065;SDS011;40964;42.114;24.220;2023-05-07T00:58:11;10.70;;;6.78;;
55065;SDS011;40964;42.114;24.220;2023-05-07T01:00:36;13.00;;;6.70;;
55065;SDS011;40964;42.114;24.220;2023-05-07T01:03:02;11.65;;;6.55;;
55065;SDS011;40964;42.114;24.220;2023-05-07T01:05:28;8.88;;;6.03;;
55065;SDS011;40964;42.114;24.220;2023-05-07T01:07:55;11.10;;;6.93;;
55065;SDS011;40964;42.114;24.220;2023-05-07T01:10:22;12.25;;;6.88;;
55065;SDS011;40964;42.114;24.220;2023-05-07T01:12:48;11.55;;;6.80;;
55065;SDS011;40964;42.114;24.220;2023-05-07T01:15:15;9.20;;;6.57;;
55065;SDS011;40964;42.114;24.220;2023-05-07T01:17:41;8.55;;;5.90;;
55065;SDS011;40964;42.114;24.220;2023-05-07T01:20:08;10.57;;;6.05;;
55065;SDS011;40964;42.114;24.220;2023-05-07T01:22:35;8.25;;;6.05;;
55065;SDS011;40964;42.114;24.220;2023-05-07T01:25:03;9.93;;;6.13;;
55065;SDS011;40964;42.114;24.220;2023-05-07T01:27:29;10.57;;;6.40;;
55065;SDS011;40964;42.114;24.220;2023-05-07T01:29:55;9.18;;;6.35;;
55065;SDS011;40964;42.114;24.220;2023-05-07T01:32:33;10.80;;;6.03;;
55065;SDS011;40964;42.114;24.220;2023-05-07T01:35:03;7.53;;;5.75;;
55065;SDS011;40964;42.114;24.220;2023-05-07T01:37:32;8.65;;;5.57;;
55065;SDS011;40964;42.114;24.220;2023-05-07T01:39:58;11.73;;;6.72;;
55065;SDS011;40964;42.114;24.220;2023-05-07T01:42:24;10.75;;;6.60;;
55065;SDS011;40964;42.114;24.220;2023-05-07T01:44:50;11.85;;;6.47;;
55065;SDS011;40964;42.114;24.220;2023-05-07T01:47:15;9.27;;;5.97;;
55065;SDS011;40964;42.114;24.220;2023-05-07T01:49:41;10.18;;;6.82;;
55065;SDS011;40964;42.114;24.220;2023-05-07T01:52:08;12.57;;;6.47;;
55065;SDS011;40964;42.114;24.220;2023-05-07T01:54:35;10.20;;;6.07;;
55065;SDS011;40964;42.114;24.220;2023-05-07T01:57:00;10.02;;;6.18;;
55065;SDS011;40964;42.114;24.220;2023-05-07T01:59:26;10.50;;;6.40;;
55065;SDS011;40964;42.114;24.220;2023-05-07T02:01:51;10.75;;;6.43;;
55065;SDS011;40964;42.114;24.220;2023-05-07T02:04:17;10.23;;;6.15;;
55065;SDS011;40964;42.114;24.220;2023-05-07T02:06:42;10.82;;;6.20;;
55065;SDS011;40964;42.114;24.220;2023-05-07T02:09:08;10.70;;;6.82;;
55065;SDS011;40964;42.114;24.220;2023-05-07T02:11:37;11.82;;;6.53;;
55065;SDS011;40964;42.114;24.220;2023-05-07T02:14:02;8.32;;;6.10;;
55065;SDS011;40964;42.114;24.220;2023-05-07T02:16:28;10.52;;;6.18;;
55065;SDS011;40964;42.114;24.220;2023-05-07T02:18:53;10.70;;;6.32;;
55065;SDS011;40964;42.114;24.220;2023-05-07T02:21:19;11.77;;;6.72;;
55065;SDS011;40964;42.114;24.220;2023-05-07T02:23:44;9.18;;;6.70;;
55065;SDS011;40964;42.114;24.220;2023-05-07T02:26:10;10.43;;;6.88;;
55065;SDS011;40964;42.114;24.220;2023-05-07T02:28:36;11.00;;;6.80;;
55065;SDS011;40964;42.114;24.220;2023-05-07T02:31:04;11.45;;;7.18;;
55065;SDS011;40964;42.114;24.220;2023-05-07T02:33:30;14.50;;;7.28;;
55065;SDS011;40964;42.114;24.220;2023-05-07T02:35:55;11.73;;;6.90;;
55065;SDS011;40964;42.114;24.220;2023-05-07T02:38:21;9.55;;;6.93;;
55065;SDS011;40964;42.114;24.220;2023-05-07T02:40:47;10.63;;;6.60;;
55065;SDS011;40964;42.114;24.220;2023-05-07T02:43:13;11.07;;;6.95;;
55065;SDS011;40964;42.114;24.220;2023-05-07T02:45:38;12.63;;;7.18;;
55065;SDS011;40964;42.114;24.220;2023-05-07T02:48:04;8.68;;;5.95;;
55065;SDS011;40964;42.114;24.220;2023-05-07T02:50:31;10.10;;;6.78;;
55065;SDS011;40964;42.114;24.220;2023-05-07T02:52:57;14.15;;;6.90;;
55065;SDS011;40964;42.114;24.220;2023-05-07T02:55:23;13.27;;;6.82;;
55065;SDS011;40964;42.114;24.220;2023-05-07T02:57:48;15.23;;;7.43;;
55065;SDS011;40964;42.114;24.220;2023-05-07T03:00:15;18.23;;;9.82;;
55065;SDS011;40964;42.114;24.220;2023-05-07T03:02:43;28.85;;;13.02;;
55065;SDS011;40964;42.114;24.220;2023-05-07T03:05:08;28.50;;;12.93;;
55065;SDS011;40964;42.114;24.220;2023-05-07T03:07:35;24.45;;;11.98;;
55065;SDS011;40964;42.114;24.220;2023-05-07T03:10:01;18.30;;;9.23;;
55065;SDS011;40964;42.114;24.220;2023-05-07T03:12:26;16.50;;;7.80;;
55065;SDS011;40964;42.114;24.220;2023-05-07T03:14:51;13.10;;;7.18;;
55065;SDS011;40964;42.114;24.220;2023-05-07T03:17:17;12.32;;;6.70;;
55065;SDS011;40964;42.114;24.220;2023-05-07T03:19:42;13.75;;;7.25;;
55065;SDS011;40964;42.114;24.220;2023-05-07T03:22:08;15.02;;;7.65;;
55065;SDS011;40964;42.114;24.220;2023-05-07T03:24:33;13.90;;;6.63;;
55065;SDS011;40964;42.114;24.220;2023-05-07T03:26:59;10.65;;;7.03;;
55065;SDS011;40964;42.114;24.220;2023-05-07T03:29:26;13.10;;;7.75;;
55065;SDS011;40964;42.114;24.220;2023-05-07T03:31:51;12.30;;;7.72;;
55065;SDS011;40964;42.114;24.220;2023-05-07T03:34:17;16.08;;;7.25;;
55065;SDS011;40964;42.114;24.220;2023-05-07T03:36:47;11.63;;;7.22;;
55065;SDS011;40964;42.114;24.220;2023-05-07T03:39:13;10.63;;;6.70;;
55065;SDS011;40964;42.114;24.220;2023-05-07T03:41:38;10.20;;;7.00;;
55065;SDS011;40964;42.114;24.220;2023-05-07T03:44:04;10.30;;;7.05;;
55065;SDS011;40964;42.114;24.220;2023-05-07T03:46:30;9.85;;;6.63;;
55065;SDS011;40964;42.114;24.220;2023-05-07T03:48:55;12.70;;;7.95;;
55065;SDS011;40964;42.114;24.220;2023-05-07T03:51:21;11.18;;;6.95;;
55065;SDS011;40964;42.114;24.220;2023-05-07T03:53:46;9.85;;;6.63;;
55065;SDS011;40964;42.114;24.220;2023-05-07T03:56:12;8.00;;;5.82;;
55065;SDS011;40964;42.114;24.220;2023-05-07T03:58:37;7.35;;;5.40;;
55065;SDS011;40964;42.114;24.220;2023-05-07T04:01:03;11.30;;;6.30;;
55065;SDS011;40964;42.114;24.220;2023-05-07T04:03:28;11.27;;;6.35;;
55065;SDS011;40964;42.114;24.220;2023-05-07T04:05:54;8.45;;;6.05;;
55065;SDS011;40964;42.114;24.220;2023-05-07T04:08:20;9.77;;;6.03;;
55065;SDS011;40964;42.114;24.220;2023-05-07T04:10:45;8.55;;;5.82;;
55065;SDS011;40964;42.114;24.220;2023-05-07T04:13:11;9.02;;;5.72;;
55065;SDS011;40964;42.114;24.220;2023-05-07T04:15:36;10.98;;;5.82;;
55065;SDS011;40964;42.114;24.220;2023-05-07T04:18:01;9.30;;;6.18;;
55065;SDS011;40964;42.114;24.220;2023-05-07T04:20:27;8.52;;;5.68;;
55065;SDS011;40964;42.114;24.220;2023-05-07T04:22:52;10.80;;;5.70;;
55065;SDS011;40964;42.114;24.220;2023-05-07T04:25:18;8.52;;;5.90;;
55065;SDS011;40964;42.114;24.220;2023-05-07T04:27:43;8.13;;;5.28;;
55065;SDS011;40964;42.114;24.220;2023-05-07T04:30:09;7.70;;;5.53;;
55065;SDS011;40964;42.114;24.220;2023-05-07T04:32:35;7.88;;;5.82;;
55065;SDS011;40964;42.114;24.220;2023-05-07T04:35:01;10.15;;;6.07;;
55065;SDS011;40964;42.114;24.220;2023-05-07T04:40:01;8.80;;;5.82;;
55065;SDS011;40964;42.114;24.220;2023-05-07T04:42:28;9.05;;;5.63;;
55065;SDS011;40964;42.114;24.220;2023-05-07T04:44:53;7.65;;;5.72;;
55065;SDS011;40964;42.114;24.220;2023-05-07T04:47:19;7.75;;;5.70;;
55065;SDS011;40964;42.114;24.220;2023-05-07T04:49:45;7.95;;;5.57;;
55065;SDS011;40964;42.114;24.220;2023-05-07T04:52:10;11.18;;;5.65;;
55065;SDS011;40964;42.114;24.220;2023-05-07T04:54:36;6.90;;;5.18;;
55065;SDS011;40964;42.114;24.220;2023-05-07T04:57:03;8.05;;;5.40;;
55065;SDS011;40964;42.114;24.220;2023-05-07T04:59:29;7.10;;;5.28;;
55065;SDS011;40964;42.114;24.220;2023-05-07T05:01:55;8.20;;;5.82;;
55065;SDS011;40964;42.114;24.220;2023-05-07T05:04:20;9.63;;;5.90;;
55065;SDS011;40964;42.114;24.220;2023-05-07T05:06:46;10.55;;;5.68;;
55065;SDS011;40964;42.114;24.220;2023-05-07T05:09:11;7.53;;;5.85;;
55065;SDS011;40964;42.114;24.220;2023-05-07T05:11:37;8.48;;;5.80;;
55065;SDS011;40964;42.114;24.220;2023-05-07T05:14:02;8.52;;;6.13;;
55065;SDS011;40964;42.114;24.220;2023-05-07T05:16:27;7.53;;;5.88;;
55065;SDS011;40964;42.114;24.220;2023-05-07T05:18:53;6.35;;;5.10;;
55065;SDS011;40964;42.114;24.220;2023-05-07T05:21:20;10.10;;;6.50;;
55065;SDS011;40964;42.114;24.220;2023-05-07T05:23:45;9.73;;;6.10;;
55065;SDS011;40964;42.114;24.220;2023-05-07T05:26:11;8.35;;;5.80;;
55065;SDS011;40964;42.114;24.220;2023-05-07T05:28:36;9.00;;;5.43;;
55065;SDS011;40964;42.114;24.220;2023-05-07T05:31:02;11.55;;;6.03;;
55065;SDS011;40964;42.114;24.220;2023-05-07T05:33:27;6.35;;;4.97;;
55065;SDS011;40964;42.114;24.220;2023-05-07T05:35:53;8.07;;;4.93;;
55065;SDS011;40964;42.114;24.220;2023-05-07T05:38:19;7.75;;;5.20;;
55065;SDS011;40964;42.114;24.220;2023-05-07T05:40:46;9.07;;;5.45;;
55065;SDS011;40964;42.114;24.220;2023-05-07T05:43:11;6.63;;;4.85;;
55065;SDS011;40964;42.114;24.220;2023-05-07T05:45:37;7.50;;;5.18;;
55065;SDS011;40964;42.114;24.220;2023-05-07T05:48:02;8.38;;;5.10;;
55065;SDS011;40964;42.114;24.220;2023-05-07T05:50:28;7.85;;;5.13;;
55065;SDS011;40964;42.114;24.220;2023-05-07T05:52:53;7.97;;;5.45;;
55065;SDS011;40964;42.114;24.220;2023-05-07T05:55:19;10.40;;;5.57;;
55065;SDS011;40964;42.114;24.220;2023-05-07T05:57:44;9.02;;;5.72;;
55065;SDS011;40964;42.114;24.220;2023-05-07T06:00:10;9.07;;;5.80;;
55065;SDS011;40964;42.114;24.220;2023-05-07T06:02:36;8.77;;;5.80;;
55065;SDS011;40964;42.114;24.220;2023-05-07T06:05:02;10.90;;;6.20;;
55065;SDS011;40964;42.114;24.220;2023-05-07T06:07:28;11.60;;;6.32;;
55065;SDS011;40964;42.114;24.220;2023-05-07T06:09:54;8.80;;;6.15;;
55065;SDS011;40964;42.114;24.220;2023-05-07T06:12:20;12.73;;;6.20;;
55065;SDS011;40964;42.114;24.220;2023-05-07T06:14:46;10.20;;;6.07;;
55065;SDS011;40964;42.114;24.220;2023-05-07T06:17:11;10.05;;;5.97;;
55065;SDS011;40964;42.114;24.220;2023-05-07T06:19:37;8.43;;;6.18;;
55065;SDS011;40964;42.114;24.220;2023-05-07T06:22:02;11.43;;;6.70;;
55065;SDS011;40964;42.114;24.220;2023-05-07T06:24:28;8.18;;;5.93;;
55065;SDS011;40964;42.114;24.220;2023-05-07T06:26:53;12.00;;;6.95;;
55065;SDS011;40964;42.114;24.220;2023-05-07T06:29:19;11.35;;;6.55;;
55065;SDS011;40964;42.114;24.220;2023-05-07T06:31:45;10.75;;;6.35;;
55065;SDS011;40964;42.114;24.220;2023-05-07T06:34:10;10.23;;;6.35;;
55065;SDS011;40964;42.114;24.220;2023-05-07T06:36:39;7.90;;;6.22;;
55065;SDS011;40964;42.114;24.220;2023-05-07T06:39:05;9.18;;;6.78;;
55065;SDS011;40964;42.114;24.220;2023-05-07T06:41:30;10.48;;;6.60;;
55065;SDS011;40964;42.114;24.220;2023-05-07T06:43:56;12.43;;;6.03;;
55065;SDS011;40964;42.114;24.220;2023-05-07T06:46:21;9.68;;;6.40;;
55065;SDS011;40964;42.114;24.220;2023-05-07T06:48:47;10.27;;;6.28;;
55065;SDS011;40964;42.114;24.220;2023-05-07T06:51:12;9.68;;;6.18;;
55065;SDS011;40964;42.114;24.220;2023-05-07T06:53:38;8.00;;;5.65;;
55065;SDS011;40964;42.114;24.220;2023-05-07T06:56:03;8.15;;;6.18;;
55065;SDS011;40964;42.114;24.220;2023-05-07T06:58:29;9.32;;;6.20;;
55065;SDS011;40964;42.114;24.220;2023-05-07T07:00:55;9.02;;;6.40;;
55065;SDS011;40964;42.114;24.220;2023-05-07T07:03:20;10.52;;;6.05;;
55065;SDS011;40964;42.114;24.220;2023-05-07T07:05:46;11.02;;;6.15;;
55065;SDS011;40964;42.114;24.220;2023-05-07T07:08:11;8.02;;;6.22;;
55065;SDS011;40964;42.114;24.220;2023-05-07T07:10:36;9.23;;;6.00;;
55065;SDS011;40964;42.114;24.220;2023-05-07T07:13:02;10.85;;;6.18;;
55065;SDS011;40964;42.114;24.220;2023-05-07T07:15:27;9.50;;;5.80;;
55065;SDS011;40964;42.114;24.220;2023-05-07T07:17:53;9.45;;;5.88;;
55065;SDS011;40964;42.114;24.220;2023-05-07T07:20:18;8.75;;;5.53;;
55065;SDS011;40964;42.114;24.220;2023-05-07T07:22:44;8.52;;;5.63;;
55065;SDS011;40964;42.114;24.220;2023-05-07T07:25:09;7.07;;;5.72;;
55065;SDS011;40964;42.114;24.220;2023-05-07T07:27:36;7.97;;;5.53;;
55065;SDS011;40964;42.114;24.220;2023-05-07T07:30:05;10.55;;;5.57;;
55065;SDS011;40964;42.114;24.220;2023-05-07T07:32:31;7.25;;;5.40;;
55065;SDS011;40964;42.114;24.220;2023-05-07T07:34:58;7.88;;;5.85;;
55065;SDS011;40964;42.114;24.220;2023-05-07T07:39:51;9.48;;;5.88;;
55065;SDS011;40964;42.114;24.220;2023-05-07T07:42:17;6.85;;;5.70;;
55065;SDS011;40964;42.114;24.220;2023-05-07T07:44:43;8.73;;;5.85;;
55065;SDS011;40964;42.114;24.220;2023-05-07T07:47:08;7.82;;;5.68;;
55065;SDS011;40964;42.114;24.220;2023-05-07T07:49:34;8.52;;;5.35;;
55065;SDS011;40964;42.114;24.220;2023-05-07T07:52:00;7.72;;;5.20;;
55065;SDS011;40964;42.114;24.220;2023-05-07T07:54:25;7.38;;;5.85;;
55065;SDS011;40964;42.114;24.220;2023-05-07T07:56:51;8.93;;;6.28;;
55065;SDS011;40964;42.114;24.220;2023-05-07T07:59:17;9.07;;;5.70;;
55065;SDS011;40964;42.114;24.220;2023-05-07T08:01:44;7.10;;;5.70;;
55065;SDS011;40964;42.114;24.220;2023-05-07T08:04:10;6.47;;;4.90;;
55065;SDS011;40964;42.114;24.220;2023-05-07T08:06:35;6.78;;;5.15;;
55065;SDS011;40964;42.114;24.220;2023-05-07T08:09:01;6.88;;;5.20;;
55065;SDS011;40964;42.114;24.220;2023-05-07T08:11:27;8.05;;;5.50;;
55065;SDS011;40964;42.114;24.220;2023-05-07T08:13:53;9.55;;;5.10;;
55065;SDS011;40964;42.114;24.220;2023-05-07T08:16:20;9.82;;;4.93;;
55065;SDS011;40964;42.114;24.220;2023-05-07T08:18:45;7.63;;;5.10;;
55065;SDS011;40964;42.114;24.220;2023-05-07T08:21:11;6.68;;;4.43;;
55065;SDS011;40964;42.114;24.220;2023-05-07T08:23:36;7.38;;;4.45;;
55065;SDS011;40964;42.114;24.220;2023-05-07T08:26:02;7.43;;;4.80;;
55065;SDS011;40964;42.114;24.220;2023-05-07T08:28:27;5.75;;;4.65;;
55065;SDS011;40964;42.114;24.220;2023-05-07T08:30:53;7.05;;;4.15;;
55065;SDS011;40964;42.114;24.220;2023-05-07T08:33:18;6.50;;;4.63;;
55065;SDS011;40964;42.114;24.220;2023-05-07T08:35:43;5.57;;;4.45;;
55065;SDS011;40964;42.114;24.220;2023-05-07T08:38:09;7.45;;;4.53;;
55065;SDS011;40964;42.114;24.220;2023-05-07T08:40:38;5.70;;;4.63;;
55065;SDS011;40964;42.114;24.220;2023-05-07T08:43:07;5.85;;;4.38;;
55065;SDS011;40964;42.114;24.220;2023-05-07T08:45:33;9.20;;;4.70;;
55065;SDS011;40964;42.114;24.220;2023-05-07T08:48:00;6.00;;;4.30;;
55065;SDS011;40964;42.114;24.220;2023-05-07T08:50:35;6.20;;;4.75;;
55065;SDS011;40964;42.114;24.220;2023-05-07T08:53:02;7.43;;;4.85;;
55065;SDS011;40964;42.114;24.220;2023-05-07T08:55:28;6.28;;;4.53;;
55065;SDS011;40964;42.114;24.220;2023-05-07T08:57:55;7.07;;;4.30;;
55065;SDS011;40964;42.114;24.220;2023-05-07T09:00:20;6.43;;;4.60;;
55065;SDS011;40964;42.114;24.220;2023-05-07T09:02:46;5.95;;;4.72;;
55065;SDS011;40964;42.114;24.220;2023-05-07T09:05:11;5.05;;;4.22;;
55065;SDS011;40964;42.114;24.220;2023-05-07T09:07:36;5.97;;;4.43;;
55065;SDS011;40964;42.114;24.220;2023-05-07T09:10:03;6.32;;;4.57;;
55065;SDS011;40964;42.114;24.220;2023-05-07T09:12:30;5.70;;;4.55;;
55065;SDS011;40964;42.114;24.220;2023-05-07T09:14:55;5.47;;;4.43;;
55065;SDS011;40964;42.114;24.220;2023-05-07T09:17:21;4.70;;;4.20;;
55065;SDS011;40964;42.114;24.220;2023-05-07T09:19:46;5.95;;;4.35;;
55065;SDS011;40964;42.114;24.220;2023-05-07T09:22:12;6.90;;;5.13;;
55065;SDS011;40964;42.114;24.220;2023-05-07T09:24:38;7.20;;;5.43;;
55065;SDS011;40964;42.114;24.220;2023-05-07T09:27:04;5.68;;;4.25;;
55065;SDS011;40964;42.114;24.220;2023-05-07T09:29:30;8.43;;;4.25;;
55065;SDS011;40964;42.114;24.220;2023-05-07T09:32:06;8.13;;;3.78;;
55065;SDS011;40964;42.114;24.220;2023-05-07T09:34:33;7.10;;;4.90;;
55065;SDS011;40964;42.114;24.220;2023-05-07T09:37:03;4.80;;;3.95;;
55065;SDS011;40964;42.114;24.220;2023-05-07T09:39:42;7.38;;;3.95;;
55065;SDS011;40964;42.114;24.220;2023-05-07T09:42:12;4.30;;;3.90;;
55065;SDS011;40964;42.114;24.220;2023-05-07T09:44:40;6.30;;;3.90;;
55065;SDS011;40964;42.114;24.220;2023-05-07T09:47:06;4.47;;;3.85;;
55065;SDS011;40964;42.114;24.220;2023-05-07T09:49:35;6.82;;;3.88;;
55065;SDS011;40964;42.114;24.220;2023-05-07T09:52:02;10.18;;;4.43;;
55065;SDS011;40964;42.114;24.220;2023-05-07T09:54:33;4.22;;;3.08;;
55065;SDS011;40964;42.114;24.220;2023-05-07T09:57:00;4.93;;;3.42;;
55065;SDS011;40964;42.114;24.220;2023-05-07T09:59:27;5.97;;;3.83;;
55065;SDS011;40964;42.114;24.220;2023-05-07T10:01:53;7.00;;;3.50;;
55065;SDS011;40964;42.114;24.220;2023-05-07T10:04:23;8.63;;;3.15;;
55065;SDS011;40964;42.114;24.220;2023-05-07T10:06:51;6.07;;;3.42;;
55065;SDS011;40964;42.114;24.220;2023-05-07T10:09:16;6.40;;;3.63;;
55065;SDS011;40964;42.114;24.220;2023-05-07T10:11:43;3.90;;;3.60;;
55065;SDS011;40964;42.114;24.220;2023-05-07T10:14:08;4.75;;;3.42;;
55065;SDS011;40964;42.114;24.220;2023-05-07T10:16:35;6.32;;;4.10;;
55065;SDS011;40964;42.114;24.220;2023-05-07T10:19:05;3.92;;;3.50;;
55065;SDS011;40964;42.114;24.220;2023-05-07T10:21:34;10.52;;;3.97;;
55065;SDS011;40964;42.114;24.220;2023-05-07T10:24:06;8.02;;;3.80;;
55065;SDS011;40964;42.114;24.220;2023-05-07T10:26:42;5.80;;;3.20;;
55065;SDS011;40964;42.114;24.220;2023-05-07T10:29:23;7.55;;;3.42;;
55065;SDS011;40964;42.114;24.220;2023-05-07T10:34:27;3.88;;;3.25;;
55065;SDS011;40964;42.114;24.220;2023-05-07T10:37:02;3.63;;;3.05;;
55065;SDS011;40964;42.114;24.220;2023-05-07T10:39:28;3.78;;;3.25;;
55065;SDS011;40964;42.114;24.220;2023-05-07T10:41:55;4.28;;;3.28;;
55065;SDS011;40964;42.114;24.220;2023-05-07T10:44:27;4.68;;;3.67;;
55065;SDS011;40964;42.114;24.220;2023-05-07T10:49:34;6.32;;;3.67;;
55065;SDS011;40964;42.114;24.220;2023-05-07T10:52:23;6.97;;;3.08;;
55065;SDS011;40964;42.114;24.220;2023-05-07T10:55:33;4.95;;;3.10;;
55065;SDS011;40964;42.114;24.220;2023-05-07T10:57:50;3.58;;;2.72;;
55065;SDS011;40964;42.114;24.220;2023-05-07T11:05:31;3.25;;;2.95;;
55065;SDS011;40964;42.114;24.220;2023-05-07T11:07:58;3.53;;;2.75;;
55065;SDS011;40964;42.114;24.220;2023-05-07T11:13:44;3.58;;;2.88;;
55065;SDS011;40964;42.114;24.220;2023-05-07T11:16:22;5.97;;;2.78;;
55065;SDS011;40964;42.114;24.220;2023-05-07T11:18:50;3.65;;;3.35;;
55065;SDS011;40964;42.114;24.220;2023-05-07T11:21:33;3.47;;;2.90;;
55065;SDS011;40964;42.114;24.220;2023-05-07T11:24:00;3.60;;;3.00;;
55065;SDS011;40964;42.114;24.220;2023-05-07T11:26:28;3.63;;;3.10;;
55065;SDS011;40964;42.114;24.220;2023-05-07T11:28:56;3.47;;;2.85;;
55065;SDS011;40964;42.114;24.220;2023-05-07T11:31:23;3.00;;;2.80;;
55065;SDS011;40964;42.114;24.220;2023-05-07T11:33:51;3.28;;;2.90;;
55065;SDS011;40964;42.114;24.220;2023-05-07T11:36:17;4.13;;;2.72;;
55065;SDS011;40964;42.114;24.220;2023-05-07T11:38:45;2.90;;;2.60;;
55065;SDS011;40964;42.114;24.220;2023-05-07T11:41:10;4.25;;;2.97;;
55065;SDS011;40964;42.114;24.220;2023-05-07T11:43:36;3.00;;;2.70;;
55065;SDS011;40964;42.114;24.220;2023-05-07T11:46:06;2.63;;;2.38;;
55065;SDS011;40964;42.114;24.220;2023-05-07T11:48:33;3.00;;;2.70;;
55065;SDS011;40964;42.114;24.220;2023-05-07T11:51:05;3.50;;;3.20;;
55065;SDS011;40964;42.114;24.220;2023-05-07T11:53:40;3.38;;;2.67;;
55065;SDS011;40964;42.114;24.220;2023-05-07T11:56:07;3.00;;;2.78;;
55065;SDS011;40964;42.114;24.220;2023-05-07T11:58:33;3.88;;;2.85;;
55065;SDS011;40964;42.114;24.220;2023-05-07T12:00:59;6.10;;;2.95;;
55065;SDS011;40964;42.114;24.220;2023-05-07T12:03:24;5.28;;;2.90;;
55065;SDS011;40964;42.114;24.220;2023-05-07T12:05:50;4.18;;;2.80;;
55065;SDS011;40964;42.114;24.220;2023-05-07T12:08:16;3.90;;;2.70;;
55065;SDS011;40964;42.114;24.220;2023-05-07T12:10:47;7.30;;;2.92;;
55065;SDS011;40964;42.114;24.220;2023-05-07T12:13:17;4.13;;;2.90;;
55065;SDS011;40964;42.114;24.220;2023-05-07T12:15:43;2.72;;;2.50;;
55065;SDS011;40964;42.114;24.220;2023-05-07T12:18:12;6.03;;;3.10;;
55065;SDS011;40964;42.114;24.220;2023-05-07T12:20:38;3.15;;;2.85;;
55065;SDS011;40964;42.114;24.220;2023-05-07T12:23:04;6.28;;;2.65;;
55065;SDS011;40964;42.114;24.220;2023-05-07T12:25:30;2.90;;;2.70;;
55065;SDS011;40964;42.114;24.220;2023-05-07T12:27:56;4.40;;;2.90;;
55065;SDS011;40964;42.114;24.220;2023-05-07T12:30:24;5.47;;;3.08;;
55065;SDS011;40964;42.114;24.220;2023-05-07T12:32:53;4.72;;;2.72;;
55065;SDS011;40964;42.114;24.220;2023-05-07T12:35:28;7.30;;;3.00;;
55065;SDS011;40964;42.114;24.220;2023-05-07T12:37:55;5.15;;;3.00;;
55065;SDS011;40964;42.114;24.220;2023-05-07T12:40:21;7.15;;;2.70;;
55065;SDS011;40964;42.114;24.220;2023-05-07T12:42:47;2.92;;;2.63;;
55065;SDS011;40964;42.114;24.220;2023-05-07T12:45:20;2.95;;;2.67;;
55065;SDS011;40964;42.114;24.220;2023-05-07T12:47:46;3.60;;;2.55;;
55065;SDS011;40964;42.114;24.220;2023-05-07T12:50:15;3.55;;;2.60;;
55065;SDS011;40964;42.114;24.220;2023-05-07T12:52:42;3.58;;;2.50;;
55065;SDS011;40964;42.114;24.220;2023-05-07T12:55:09;2.80;;;2.60;;
55065;SDS011;40964;42.114;24.220;2023-05-07T12:57:39;4.60;;;2.60;;
55065;SDS011;40964;42.114;24.220;2023-05-07T13:00:12;4.13;;;2.92;;
55065;SDS011;40964;42.114;24.220;2023-05-07T13:02:39;3.38;;;2.65;;
55065;SDS011;40964;42.114;24.220;2023-05-07T13:05:06;3.55;;;2.53;;
55065;SDS011;40964;42.114;24.220;2023-05-07T13:07:32;4.15;;;2.65;;
55065;SDS011;40964;42.114;24.220;2023-05-07T13:09:58;3.53;;;2.47;;
55065;SDS011;40964;42.114;24.220;2023-05-07T13:12:23;4.10;;;2.90;;
55065;SDS011;40964;42.114;24.220;2023-05-07T13:14:48;5.57;;;2.83;;
55065;SDS011;40964;42.114;24.220;2023-05-07T13:17:14;4.88;;;2.97;;
55065;SDS011;40964;42.114;24.220;2023-05-07T13:19:39;4.13;;;2.65;;
55065;SDS011;40964;42.114;24.220;2023-05-07T13:22:05;3.88;;;3.00;;
55065;SDS011;40964;42.114;24.220;2023-05-07T13:24:30;3.83;;;2.97;;
55065;SDS011;40964;42.114;24.220;2023-05-07T13:26:56;3.35;;;3.05;;
55065;SDS011;40964;42.114;24.220;2023-05-07T13:29:21;4.65;;;2.65;;
55065;SDS011;40964;42.114;24.220;2023-05-07T13:31:54;4.03;;;2.78;;
55065;SDS011;40964;42.114;24.220;2023-05-07T13:34:19;3.03;;;2.67;;
55065;SDS011;40964;42.114;24.220;2023-05-07T13:36:45;5.95;;;2.90;;
55065;SDS011;40964;42.114;24.220;2023-05-07T13:39:10;7.10;;;2.63;;
55065;SDS011;40964;42.114;24.220;2023-05-07T13:41:36;3.35;;;2.83;;
55065;SDS011;40964;42.114;24.220;2023-05-07T13:44:01;3.03;;;2.70;;
55065;SDS011;40964;42.114;24.220;2023-05-07T13:46:27;3.75;;;2.83;;
55065;SDS011;40964;42.114;24.220;2023-05-07T13:48:52;3.35;;;2.88;;
55065;SDS011;40964;42.114;24.220;2023-05-07T13:51:18;4.32;;;2.70;;
55065;SDS011;40964;42.114;24.220;2023-05-07T13:53:43;4.55;;;2.90;;
55065;SDS011;40964;42.114;24.220;2023-05-07T13:56:09;3.67;;;3.10;;
55065;SDS011;40964;42.114;24.220;2023-05-07T13:58:34;5.03;;;3.00;;
55065;SDS011;40964;42.114;24.220;2023-05-07T14:01:01;6.53;;;2.92;;
55065;SDS011;40964;42.114;24.220;2023-05-07T14:03:26;5.07;;;3.00;;
55065;SDS011;40964;42.114;24.220;2023-05-07T14:05:52;6.45;;;3.15;;
55065;SDS011;40964;42.114;24.220;2023-05-07T14:08:17;4.07;;;2.72;;
55065;SDS011;40964;42.114;24.220;2023-05-07T14:10:45;5.60;;;3.00;;
55065;SDS011;40964;42.114;24.220;2023-05-07T14:13:11;3.50;;;3.00;;
55065;SDS011;40964;42.114;24.220;2023-05-07T14:15:36;3.45;;;3.15;;
55065;SDS011;40964;42.114;24.220;2023-05-07T14:18:02;3.30;;;3.00;;
55065;SDS011;40964;42.114;24.220;2023-05-07T14:20:28;3.33;;;2.80;;
55065;SDS011;40964;42.114;24.220;2023-05-07T14:22:55;3.03;;;2.72;;
55065;SDS011;40964;42.114;24.220;2023-05-07T14:25:20;3.72;;;2.83;;
55065;SDS011;40964;42.114;24.220;2023-05-07T14:27:46;5.90;;;3.00;;
55065;SDS011;40964;42.114;24.220;2023-05-07T14:30:12;6.13;;;2.83;;
55065;SDS011;40964;42.114;24.220;2023-05-07T14:32:37;4.65;;;3.00;;
55065;SDS011;40964;42.114;24.220;2023-05-07T14:35:03;3.60;;;3.03;;
55065;SDS011;40964;42.114;24.220;2023-05-07T14:37:29;5.15;;;3.00;;
55065;SDS011;40964;42.114;24.220;2023-05-07T14:39:54;3.85;;;2.75;;
55065;SDS011;40964;42.114;24.220;2023-05-07T14:42:20;3.63;;;3.00;;
55065;SDS011;40964;42.114;24.220;2023-05-07T14:44:46;4.57;;;3.05;;
55065;SDS011;40964;42.114;24.220;2023-05-07T14:47:13;3.88;;;3.30;;